createdAt,value
2022-12-28T00:04:59.046Z,5.3
2022-12-28T00:09:59.146Z,5.2
2022-12-28T00:14:59.458Z,5.2
2022-12-28T00:19:59.054Z,5.2
2022-12-28T00:24:58.969Z,5.3
2022-12-28T00:29:59.165Z,5.3
2022-12-28T00:34:58.815Z,5.4
2022-12-28T00:39:58.939Z,5.4
2022-12-28T00:44:58.973Z,5.4
2022-12-28T00:49:59.002Z,5.5
2022-12-28T00:54:58.776Z,5.5
2022-12-28T00:59:59.069Z,5.6
2022-12-28T01:04:58.915Z,5.7
2022-12-28T01:09:59.515Z,5.8
2022-12-28T01:14:58.998Z,5.9
2022-12-28T01:19:59.351Z,6
2022-12-28T01:24:59.389Z,6
2022-12-28T01:29:58.886Z,6.1
2022-12-28T01:34:59.168Z,6.2
2022-12-28T01:39:59.014Z,6.3
2022-12-28T01:44:58.801Z,6.3
2022-12-28T01:49:59.019Z,6.3
2022-12-28T01:54:58.751Z,6.3
2022-12-28T02:00:02.134Z,6.3
2022-12-28T02:04:59.645Z,6.3
2022-12-28T02:10:43.619Z,6.2
2022-12-28T02:14:58.745Z,6.2
2022-12-28T02:19:58.798Z,6.1
2022-12-28T02:25:11.471Z,6.1
2022-12-28T02:30:02.170Z,6.2
2022-12-28T02:36:18.680Z,6.2
2022-12-28T02:40:02.130Z,6.2
2022-12-28T02:44:58.874Z,6.2
2022-12-28T02:49:58.926Z,6.3
2022-12-28T02:54:58.870Z,6.3
2022-12-28T02:59:58.959Z,6.4
2022-12-28T03:05:05.231Z,6.2
2022-12-28T03:09:58.807Z,6.3
2022-12-28T03:14:58.750Z,6.2
2022-12-28T03:19:59.058Z,6.3
2022-12-28T03:24:59.081Z,6.4
2022-12-28T03:30:01.147Z,6.4
2022-12-28T03:34:59.027Z,6.5
2022-12-28T03:39:59.083Z,6.6
2022-12-28T03:45:01.617Z,6.7
2022-12-28T03:49:58.881Z,6.8
2022-12-28T03:54:58.892Z,6.9
2022-12-28T03:59:58.923Z,7
2022-12-28T04:04:59.010Z,7.1
2022-12-28T04:09:58.764Z,7.3
2022-12-28T04:14:59.045Z,7.3
2022-12-28T04:19:58.712Z,7.3
2022-12-28T04:24:59.180Z,7.2
2022-12-28T04:29:58.780Z,7.2
2022-12-28T04:34:58.937Z,7.3
2022-12-28T04:39:58.907Z,7.2
2022-12-28T04:44:59.217Z,7.3
2022-12-28T04:49:58.852Z,7.2
2022-12-28T04:54:58.789Z,7.2
2022-12-28T04:59:59.175Z,7.4
2022-12-28T05:04:58.729Z,7.5
2022-12-28T05:09:58.849Z,7.6
2022-12-28T05:14:58.919Z,7.6
2022-12-28T05:19:59.419Z,7.6
2022-12-28T05:24:59.075Z,7.7
2022-12-28T05:29:59.036Z,7.7
2022-12-28T05:34:58.593Z,7.7
2022-12-28T05:39:58.815Z,7.8
2022-12-28T05:44:58.775Z,7.6
2022-12-28T05:49:59.374Z,7.7
2022-12-28T05:54:58.654Z,7.8
2022-12-28T05:59:58.786Z,7.9
2022-12-28T06:04:58.627Z,7.9
2022-12-28T06:09:58.654Z,7.9
2022-12-28T06:14:58.862Z,8
2022-12-28T06:19:59.365Z,8
2022-12-28T06:24:58.683Z,8
2022-12-28T06:29:58.631Z,8.1
2022-12-28T06:34:58.739Z,8.2
2022-12-28T06:39:58.627Z,8
2022-12-28T06:44:58.810Z,8.1
2022-12-28T06:49:58.725Z,8.1
2022-12-28T06:54:58.811Z,8.1
2022-12-28T06:59:58.787Z,8.1
2022-12-28T07:04:58.663Z,8.1
2022-12-28T07:09:58.633Z,8.2
2022-12-28T07:14:58.809Z,8.3
2022-12-28T07:19:58.820Z,8.3
2022-12-28T07:24:58.835Z,8.3
2022-12-28T07:29:58.630Z,8.3
2022-12-28T07:34:58.565Z,8.3
2022-12-28T07:39:58.657Z,8.4
2022-12-28T07:44:58.831Z,8.4
2022-12-28T07:49:59.117Z,8.4
2022-12-28T07:54:58.766Z,8.5
2022-12-28T07:59:58.648Z,8.4
2022-12-28T08:04:58.621Z,8.5
2022-12-28T08:09:59.132Z,8.4
2022-12-28T08:14:58.471Z,8.4
2022-12-28T08:19:58.554Z,8.4
2022-12-28T08:24:58.665Z,8.6
2022-12-28T08:29:58.462Z,8.6
2022-12-28T08:34:58.811Z,8.6
2022-12-28T08:39:58.789Z,8.6
2022-12-28T08:44:58.778Z,8.7
2022-12-28T08:49:58.605Z,8.6
2022-12-28T08:54:58.515Z,8.6
2022-12-28T08:59:58.591Z,8.6
2022-12-28T09:04:58.967Z,8.6
2022-12-28T09:09:58.770Z,8.6
2022-12-28T09:14:58.579Z,8.5
2022-12-28T09:19:58.741Z,8.6
2022-12-28T09:24:58.452Z,8.6
2022-12-28T09:29:58.682Z,8.5
2022-12-28T09:34:58.491Z,8.5
2022-12-28T09:40:01.585Z,8.7
2022-12-28T09:44:58.346Z,8.7
2022-12-28T09:50:06.062Z,8.8
2022-12-28T09:55:03.088Z,8.8
2022-12-28T09:59:58.673Z,8.9
2022-12-28T10:04:58.423Z,8.9
2022-12-28T10:09:59.075Z,8.8
2022-12-28T10:14:58.572Z,8.9
2022-12-28T10:19:58.384Z,8.8
2022-12-28T10:24:58.687Z,8.8
2022-12-28T10:29:58.695Z,8.9
2022-12-28T10:34:58.790Z,8.8
2022-12-28T10:39:58.491Z,8.7
2022-12-28T10:45:01.325Z,8.5
2022-12-28T10:50:35.962Z,8.4
2022-12-28T10:55:07.428Z,8.3
2022-12-28T11:00:13.126Z,8.3
2022-12-28T11:04:59.426Z,8.2
2022-12-28T11:10:27.193Z,8.1
2022-12-28T11:14:58.806Z,8.1
2022-12-28T11:19:58.433Z,8.1
2022-12-28T11:24:59.275Z,8.1
2022-12-28T11:29:58.829Z,8.1
2022-12-28T11:34:58.465Z,8.2
2022-12-28T11:39:58.582Z,8.2
2022-12-28T11:44:58.421Z,8.3
2022-12-28T11:49:58.559Z,8.2
2022-12-28T11:54:58.556Z,8.2
2022-12-28T11:59:58.363Z,8.2
2022-12-28T12:04:58.544Z,8.1
2022-12-28T12:09:58.449Z,8.1
2022-12-28T12:15:02.412Z,8.1
2022-12-28T12:20:00.645Z,8.2
2022-12-28T12:24:58.502Z,8.2
2022-12-28T12:29:58.583Z,8.2
2022-12-28T12:35:01.197Z,8.1
2022-12-28T12:39:58.559Z,8.1
2022-12-28T12:45:01.582Z,8.1
2022-12-28T12:50:11.882Z,8.2
2022-12-28T12:55:05.858Z,8.2
2022-12-28T12:59:58.228Z,8.3
2022-12-28T13:04:58.373Z,8.4
2022-12-28T13:09:58.390Z,8.4
2022-12-28T13:14:58.310Z,8.4
2022-12-28T13:20:06.870Z,8.5
2022-12-28T13:24:58.331Z,8.4
2022-12-28T13:29:58.601Z,8.4
2022-12-28T13:34:58.355Z,8.4
2022-12-28T13:39:58.488Z,8.5
2022-12-28T13:45:00.313Z,8.6
2022-12-28T13:50:00.578Z,8.7
2022-12-28T13:54:58.359Z,8.7
2022-12-28T13:59:58.865Z,8.7
2022-12-28T14:04:58.538Z,8.8
2022-12-28T14:09:58.602Z,8.9
2022-12-28T14:14:58.492Z,8.9
2022-12-28T14:19:58.565Z,8.9
2022-12-28T14:24:58.602Z,8.9
2022-12-28T14:29:58.369Z,8.9
2022-12-28T14:34:59.359Z,9
2022-12-28T14:39:58.374Z,8.9
2022-12-28T14:44:58.162Z,8.9
2022-12-28T14:49:59.352Z,8.8
2022-12-28T14:54:58.312Z,8.9
2022-12-28T14:59:58.253Z,8.8
2022-12-28T15:05:00.817Z,8.8
2022-12-28T15:09:58.563Z,8.8
2022-12-28T15:14:58.432Z,8.9
2022-12-28T15:19:58.236Z,8.9
2022-12-28T15:24:58.111Z,8.7
2022-12-28T15:30:06.599Z,8.7
2022-12-28T15:34:58.685Z,8.6
2022-12-28T15:39:58.414Z,8.7
2022-12-28T15:44:58.353Z,8.7
2022-12-28T15:49:58.334Z,8.6
2022-12-28T15:54:58.279Z,8.5
2022-12-28T15:59:58.448Z,8.5
2022-12-28T16:04:58.295Z,8.4
2022-12-28T16:09:58.380Z,8.4
2022-12-28T16:14:58.304Z,8.4
2022-12-28T16:19:58.203Z,8.3
2022-12-28T16:24:58.090Z,8.3
2022-12-28T16:29:58.990Z,8.2
2022-12-28T16:34:58.514Z,8.1
2022-12-28T16:39:58.720Z,8.1
2022-12-28T16:44:58.339Z,8.1
2022-12-28T16:49:58.366Z,8
2022-12-28T16:54:58.161Z,8.1
2022-12-28T16:59:58.240Z,8.1
2022-12-28T17:04:58.155Z,8
2022-12-28T17:09:58.360Z,7.9
2022-12-28T17:15:03.209Z,8
2022-12-28T17:19:58.398Z,8.1
2022-12-28T17:24:58.253Z,8.1
2022-12-28T17:29:58.901Z,8.1
2022-12-28T17:34:58.313Z,8
2022-12-28T17:39:58.242Z,8.1
2022-12-28T17:44:58.624Z,8
2022-12-28T17:49:58.386Z,8
2022-12-28T17:54:58.064Z,8
2022-12-28T17:59:58.134Z,8
2022-12-28T18:04:58.733Z,7.9
2022-12-28T18:09:58.784Z,7.8
2022-12-28T18:14:58.173Z,7.9
2022-12-28T18:19:58.111Z,8
2022-12-28T18:24:57.978Z,7.9
2022-12-28T18:29:58.119Z,8.1
2022-12-28T18:34:58.072Z,8
2022-12-28T18:39:58.399Z,8.1
2022-12-28T18:44:58.424Z,8.1
2022-12-28T18:49:58.119Z,8.2
2022-12-28T18:54:58.184Z,8.3
2022-12-28T18:59:58.124Z,8.3
2022-12-28T19:04:58.226Z,8.3
2022-12-28T19:09:58.028Z,8.4
2022-12-28T19:14:58.074Z,8.5
2022-12-28T19:19:58.112Z,8.5
2022-12-28T19:24:58.215Z,8.6
2022-12-28T19:29:57.981Z,8.6
2022-12-28T19:34:58.187Z,8.7
2022-12-28T19:39:58.411Z,8.7
2022-12-28T19:44:58.342Z,8.7
2022-12-28T19:49:58.180Z,8.8
2022-12-28T19:54:58.260Z,8.8
2022-12-28T19:59:58.168Z,8.9
2022-12-28T20:04:58.192Z,8.9
2022-12-28T20:09:58.408Z,8.8
2022-12-28T20:14:58.017Z,8.8
2022-12-28T20:19:58.404Z,8.9
2022-12-28T20:24:58.136Z,9
2022-12-28T20:29:58.094Z,9.1
2022-12-28T20:34:57.881Z,9.2
2022-12-28T20:39:57.989Z,9.4
2022-12-28T20:44:58.613Z,9.5
2022-12-28T20:49:58.114Z,9.6
2022-12-28T20:54:58.067Z,9.6
2022-12-28T20:59:58.109Z,9.6
2022-12-28T21:04:58.119Z,9.7
2022-12-28T21:09:58.004Z,9.6
2022-12-28T21:14:58.081Z,9.6
2022-12-28T21:19:58.100Z,9.6
2022-12-28T21:24:58.265Z,9.7
2022-12-28T21:29:58.059Z,9.8
2022-12-28T21:34:58.167Z,9.7
2022-12-28T21:39:58.363Z,9.7
2022-12-28T21:44:58.109Z,9.6
2022-12-28T21:49:58.092Z,9.4
2022-12-28T21:54:57.962Z,9.4
2022-12-28T21:59:58.003Z,9.5
2022-12-28T22:05:02.494Z,9.4
2022-12-28T22:09:58.146Z,9.4
2022-12-28T22:14:58.332Z,9.4
2022-12-28T22:19:57.877Z,9.4
2022-12-28T22:24:58.038Z,9.4
2022-12-28T22:29:57.963Z,9.4
2022-12-28T22:34:58.035Z,9.5
2022-12-28T22:39:57.981Z,9.6
2022-12-28T22:44:57.874Z,9.6
2022-12-28T22:49:58.139Z,9.7
2022-12-28T22:54:57.898Z,9.6
2022-12-28T22:59:57.956Z,9.5
2022-12-28T23:04:57.773Z,9.6
2022-12-28T23:09:57.953Z,9.7
2022-12-28T23:14:57.892Z,9.8
2022-12-28T23:19:58.005Z,9.9
2022-12-28T23:24:57.748Z,10
2022-12-28T23:29:58.338Z,10
2022-12-28T23:34:57.849Z,10.1
2022-12-28T23:39:58.319Z,9.9
2022-12-28T23:44:57.877Z,10
2022-12-28T23:49:57.763Z,10.1
2022-12-28T23:54:57.909Z,10.2
2022-12-28T23:59:57.873Z,10.2
